createdAt,value
2022-08-08T00:00:50.204Z,1.43
2022-08-08T00:01:08.914Z,1.41
2022-08-08T00:02:32.954Z,1.53
2022-08-08T00:03:20.074Z,1.49
2022-08-08T00:04:07.968Z,1.42
2022-08-08T00:05:09.794Z,1.34
2022-08-08T00:06:07.942Z,1.4
2022-08-08T00:07:12.517Z,1.38
2022-08-08T00:08:07.937Z,1.33
2022-08-08T00:09:08.159Z,1.33
2022-08-08T00:10:07.910Z,1.33
2022-08-08T00:11:13.116Z,1.32
2022-08-08T00:12:10.271Z,1.35
2022-08-08T00:13:10.300Z,1.45
2022-08-08T00:17:22.946Z,1.3
2022-08-08T00:18:07.920Z,1.37
2022-08-08T00:19:07.931Z,1.43
2022-08-08T00:20:07.915Z,1.54
2022-08-08T00:21:08.036Z,1.3
2022-08-08T00:22:10.284Z,1.2
2022-08-08T00:23:08.200Z,1.23
2022-08-08T00:24:07.915Z,1.2
2022-08-08T00:25:08.481Z,1.41
2022-08-08T00:26:07.921Z,1.45
2022-08-08T00:27:07.928Z,1.5
2022-08-08T00:28:07.931Z,1.45
2022-08-08T00:29:08.399Z,1.35
2022-08-08T00:30:07.912Z,1.26
2022-08-08T00:32:21.072Z,1.25
2022-08-08T00:32:28.420Z,1.26
2022-08-08T00:33:07.920Z,1.22
2022-08-08T00:34:18.101Z,1.19
2022-08-08T00:35:07.909Z,1.3
2022-08-08T00:36:07.909Z,1.34
2022-08-08T00:37:08.157Z,1.24
2022-08-08T00:38:07.932Z,1.23
2022-08-08T00:41:07.750Z,1.23
2022-08-08T00:41:12.290Z,1.23
2022-08-08T00:41:14.512Z,1.34
2022-08-08T00:42:19.709Z,1.36
2022-08-08T00:43:18.575Z,1.27
2022-08-08T00:44:08.026Z,1.27
2022-08-08T00:45:20.938Z,1.22
2022-08-08T00:46:16.546Z,1.25
2022-08-08T00:47:14.266Z,1.24
2022-08-08T00:48:29.420Z,1.22
2022-08-08T00:49:17.200Z,1.27
2022-08-08T00:50:07.923Z,1.22
2022-08-08T00:51:07.925Z,1.13
2022-08-08T00:52:07.943Z,1.24
2022-08-08T00:53:15.567Z,1.3
2022-08-08T00:54:13.794Z,1.27
2022-08-08T00:55:07.912Z,1.27
2022-08-08T00:56:09.261Z,1.23
2022-08-08T00:57:07.937Z,1.23
2022-08-08T00:58:13.554Z,1.25
2022-08-08T00:59:07.936Z,1.25
2022-08-08T01:00:07.917Z,1.25
2022-08-08T01:01:07.994Z,1.3
2022-08-08T01:02:12.931Z,1.38
2022-08-08T01:03:59.767Z,1.31
2022-08-08T01:04:08.227Z,1.32
2022-08-08T01:05:07.912Z,1.25
2022-08-08T01:06:08.039Z,1.25
2022-08-08T01:07:07.929Z,1.14
2022-08-08T01:08:07.942Z,1.17
2022-08-08T01:09:35.656Z,1.2
2022-08-08T01:10:07.915Z,1.25
2022-08-08T01:11:08.288Z,1.21
2022-08-08T01:12:07.938Z,1.14
2022-08-08T01:13:07.931Z,1.18
2022-08-08T01:14:13.545Z,1.24
2022-08-08T01:15:07.916Z,1.24
2022-08-08T01:16:07.922Z,1.25
2022-08-08T01:17:07.969Z,1.16
2022-08-08T01:18:16.121Z,1.16
2022-08-08T01:19:13.749Z,1.18
2022-08-08T01:20:07.915Z,1.18
2022-08-08T01:21:07.925Z,1.23
2022-08-08T01:22:15.620Z,1.27
2022-08-08T01:23:07.933Z,1.26
2022-08-08T01:24:13.684Z,1.34
2022-08-08T01:25:08.318Z,1.26
2022-08-08T01:26:11.703Z,1.26
2022-08-08T01:32:15.944Z,1.15
2022-08-08T01:33:16.450Z,1.14
2022-08-08T01:34:07.943Z,1.14
2022-08-08T01:35:11.776Z,1.12
2022-08-08T01:36:07.945Z,1.08
2022-08-08T01:37:07.914Z,1.07
2022-08-08T01:38:07.953Z,1.1
2022-08-08T01:39:07.956Z,1.16
2022-08-08T01:40:07.910Z,1.1
2022-08-08T01:41:09.914Z,1.09
2022-08-08T01:42:08.215Z,1.09
2022-08-08T01:43:07.934Z,1.04
2022-08-08T01:44:07.940Z,1.01
2022-08-08T01:45:09.936Z,1.04
2022-08-08T01:46:07.927Z,0.96
2022-08-08T01:48:14.444Z,0.97
2022-08-08T01:48:16.369Z,0.95
2022-08-08T01:49:11.005Z,0.97
2022-08-08T01:50:07.962Z,0.98
2022-08-08T01:51:31.675Z,1.01
2022-08-08T01:53:14.998Z,1.07
2022-08-08T01:55:16.602Z,1.09
2022-08-08T01:55:18.907Z,1.28
2022-08-08T01:55:26.364Z,1.19
2022-08-08T01:56:28.617Z,1.16
2022-08-08T01:57:07.929Z,1.21
2022-08-08T01:58:13.096Z,0.99
2022-08-08T01:59:08.024Z,1.05
2022-08-08T02:00:07.917Z,1.1
2022-08-08T02:01:08.869Z,0.98
2022-08-08T02:02:08.270Z,0.95
2022-08-08T02:03:07.949Z,0.98
2022-08-08T02:04:08.739Z,0.91
2022-08-08T02:05:07.921Z,0.99
2022-08-08T02:06:07.942Z,0.99
2022-08-08T02:07:07.935Z,1.04
2022-08-08T02:08:08.752Z,1.06
2022-08-08T02:09:17.648Z,0.94
2022-08-08T02:10:11.900Z,0.93
2022-08-08T02:11:07.933Z,2.27
2022-08-08T02:12:07.917Z,0.91
2022-08-08T02:13:07.935Z,0.89
2022-08-08T02:14:07.922Z,0.92
2022-08-08T02:15:12.253Z,0.92
2022-08-08T02:16:07.928Z,0.91
2022-08-08T02:17:10.587Z,0.94
2022-08-08T02:18:10.474Z,0.91
2022-08-08T02:19:26.959Z,0.89
2022-08-08T02:20:14.717Z,1
2022-08-08T02:21:08.049Z,1.01
2022-08-08T02:22:07.919Z,1.01
2022-08-08T02:23:07.937Z,0.97
2022-08-08T02:24:07.910Z,0.96
2022-08-08T02:25:11.827Z,0.92
2022-08-08T02:26:07.918Z,0.78
2022-08-08T02:27:07.919Z,0.87
2022-08-08T02:28:07.943Z,0.86
2022-08-08T02:29:07.917Z,0.76
2022-08-08T02:30:07.931Z,0.72
2022-08-08T02:31:24.557Z,0.73
2022-08-08T02:32:08.532Z,0.77
2022-08-08T02:33:07.935Z,0.66
2022-08-08T02:34:09.576Z,0.77
2022-08-08T02:35:11.787Z,0.8
2022-08-08T02:36:07.917Z,0.81
2022-08-08T02:37:09.919Z,0.79
2022-08-08T02:38:09.112Z,0.85
2022-08-08T02:39:42.682Z,0.83
2022-08-08T02:40:08.625Z,0.96
2022-08-08T02:41:07.934Z,0.96
2022-08-08T02:42:10.669Z,0.84
2022-08-08T02:44:38.479Z,1.04
2022-08-08T02:44:43.139Z,0.88
2022-08-08T02:45:18.181Z,0.95
2022-08-08T02:46:08.075Z,0.91
2022-08-08T02:47:07.928Z,0.85
2022-08-08T02:48:07.947Z,0.89
2022-08-08T02:49:07.934Z,0.89
2022-08-08T02:50:07.915Z,0.85
2022-08-08T02:51:07.923Z,0.78
2022-08-08T02:52:32.849Z,0.76
2022-08-08T02:53:07.948Z,0.73
2022-08-08T02:54:07.927Z,0.75
2022-08-08T02:55:10.454Z,0.82
2022-08-08T02:56:08.488Z,0.83
2022-08-08T02:57:12.275Z,0.83
2022-08-08T02:58:07.942Z,0.82
2022-08-08T02:59:26.204Z,0.87
2022-08-08T03:00:26.920Z,0.78
2022-08-08T03:01:14.603Z,0.73
2022-08-08T03:02:08.028Z,0.77
2022-08-08T03:03:08.147Z,0.76
2022-08-08T03:05:04.437Z,0.71
2022-08-08T03:05:09.473Z,0.66
2022-08-08T03:06:07.918Z,0.62
2022-08-08T03:07:07.918Z,0.64
2022-08-08T03:08:07.953Z,0.66
2022-08-08T03:09:07.923Z,0.66
2022-08-08T03:10:07.941Z,0.6
2022-08-08T03:11:07.924Z,0.59
2022-08-08T03:12:08.465Z,0.58
2022-08-08T03:15:55.699Z,0.64
2022-08-08T03:16:00.663Z,0.76
2022-08-08T03:16:03.867Z,0.62
2022-08-08T03:16:08.121Z,0.62
2022-08-08T03:17:08.584Z,0.56
2022-08-08T03:18:07.989Z,0.57
2022-08-08T03:19:07.932Z,0.62
2022-08-08T03:20:10.336Z,0.62
2022-08-08T03:21:09.942Z,0.67
2022-08-08T03:22:38.516Z,0.7
2022-08-08T03:23:07.944Z,0.74
2022-08-08T03:24:07.921Z,0.7
2022-08-08T03:25:09.215Z,0.6
2022-08-08T03:26:07.923Z,0.62
2022-08-08T03:27:08.095Z,0.65
2022-08-08T03:28:07.931Z,0.56
2022-08-08T03:29:17.221Z,0.54
2022-08-08T03:30:07.921Z,0.54
2022-08-08T03:31:24.729Z,0.5
2022-08-08T03:32:08.641Z,0.56
2022-08-08T03:33:55.510Z,0.54
2022-08-08T03:34:07.913Z,0.5
2022-08-08T03:35:09.615Z,0.48
2022-08-08T03:36:10.285Z,0.58
2022-08-08T03:37:20.231Z,0.66
2022-08-08T03:38:56.528Z,0.76
2022-08-08T03:39:14.677Z,0.79
2022-08-08T03:40:10.792Z,0.79
2022-08-08T03:41:22.826Z,0.74
2022-08-08T03:42:11.831Z,0.72
2022-08-08T03:43:18.112Z,0.96
2022-08-08T03:44:07.935Z,0.96
2022-08-08T03:46:05.919Z,0.64
2022-08-08T03:46:09.106Z,0.65
2022-08-08T03:47:19.472Z,0.74
2022-08-08T03:48:07.935Z,0.68
2022-08-08T03:49:30.907Z,0.6
2022-08-08T03:50:07.936Z,0.7
2022-08-08T03:51:07.930Z,0.7
2022-08-08T03:52:07.946Z,0.79
2022-08-08T03:53:07.933Z,0.83
2022-08-08T03:54:08.442Z,0.79
2022-08-08T03:55:20.401Z,0.74
2022-08-08T03:56:09.629Z,0.76
2022-08-08T03:58:09.493Z,0.83
2022-08-08T03:58:31.899Z,0.84
2022-08-08T03:59:07.926Z,0.84
2022-08-08T04:00:11.878Z,0.84
2022-08-08T04:01:24.271Z,0.93
2022-08-08T04:02:33.367Z,0.87
2022-08-08T04:03:11.515Z,0.88
2022-08-08T04:04:07.969Z,0.93
2022-08-08T04:05:10.233Z,0.88
2022-08-08T04:06:07.920Z,0.91
2022-08-08T04:07:07.926Z,0.99
2022-08-08T04:08:07.939Z,0.9
2022-08-08T04:09:11.460Z,0.88
2022-08-08T04:10:07.938Z,0.91
2022-08-08T04:11:11.455Z,0.93
2022-08-08T04:12:07.943Z,0.97
2022-08-08T04:13:18.647Z,0.95
2022-08-08T04:14:34.820Z,0.93
2022-08-08T04:15:07.940Z,0.89
2022-08-08T04:16:07.930Z,0.91
2022-08-08T04:17:22.557Z,1.07
2022-08-08T04:18:09.439Z,0.94
2022-08-08T04:19:25.027Z,0.94
2022-08-08T04:20:08.300Z,0.86
2022-08-08T04:21:07.923Z,0.88
2022-08-08T04:22:07.930Z,0.87
2022-08-08T04:23:08.000Z,0.91
2022-08-08T04:24:18.831Z,0.93
2022-08-08T04:25:07.911Z,1
2022-08-08T04:26:09.329Z,1.12
2022-08-08T04:27:19.486Z,1.05
2022-08-08T04:28:36.751Z,1.01
2022-08-08T04:29:07.927Z,1
2022-08-08T04:30:17.746Z,1.02
2022-08-08T04:31:07.934Z,0.94
2022-08-08T04:32:07.919Z,0.97
2022-08-08T04:33:08.050Z,1.05
2022-08-08T04:34:07.941Z,1.04
2022-08-08T04:35:07.916Z,1.04
2022-08-08T04:36:07.930Z,1.1
2022-08-08T04:37:07.932Z,1.14
2022-08-08T04:38:09.563Z,1.14
2022-08-08T04:40:04.390Z,1.14
2022-08-08T04:40:12.200Z,1.12
2022-08-08T04:41:08.020Z,1.21
2022-08-08T04:42:07.916Z,1.29
2022-08-08T04:43:08.866Z,1.27
2022-08-08T04:44:07.944Z,1.28
2022-08-08T04:45:07.924Z,1.34
2022-08-08T04:46:07.918Z,1.33
2022-08-08T04:47:07.928Z,1.35
2022-08-08T04:48:08.235Z,1.42
2022-08-08T04:49:11.417Z,1.39
2022-08-08T04:50:07.915Z,1.32
2022-08-08T04:51:07.930Z,1.31
2022-08-08T04:52:07.931Z,1.4
2022-08-08T04:53:51.820Z,1.48
2022-08-08T04:54:39.679Z,1.48
2022-08-08T04:55:07.913Z,1.39
2022-08-08T04:56:07.936Z,1.46
2022-08-08T04:57:07.923Z,1.51
2022-08-08T04:58:11.113Z,1.48
2022-08-08T04:59:07.923Z,1.63
2022-08-08T05:00:07.930Z,1.72
2022-08-08T05:01:10.806Z,1.6
2022-08-08T05:02:07.974Z,1.59
2022-08-08T05:03:07.942Z,1.65
2022-08-08T05:04:12.432Z,1.67
2022-08-08T05:05:07.918Z,1.76
2022-08-08T05:06:13.096Z,1.68
2022-08-08T05:07:07.930Z,1.73
2022-08-08T05:08:07.946Z,1.71
2022-08-08T05:09:07.924Z,1.71
2022-08-08T05:10:07.910Z,1.56
2022-08-08T05:11:07.988Z,1.47
2022-08-08T05:12:09.309Z,1.62
2022-08-08T05:13:12.902Z,1.55
2022-08-08T05:14:07.925Z,1.63
2022-08-08T05:15:07.910Z,1.76
2022-08-08T05:16:51.309Z,1.76
2022-08-08T05:17:08.779Z,1.79
2022-08-08T05:18:07.936Z,1.77
2022-08-08T05:19:07.936Z,1.96
2022-08-08T05:20:13.374Z,1.9
2022-08-08T05:21:07.924Z,1.96
2022-08-08T05:22:07.919Z,1.91
2022-08-08T05:23:07.936Z,1.92
2022-08-08T05:24:08.679Z,1.97
2022-08-08T05:25:07.923Z,1.97
2022-08-08T05:26:07.918Z,2.09
2022-08-08T05:27:07.926Z,2.06
2022-08-08T05:28:07.953Z,2.04
2022-08-08T05:29:07.924Z,2.05
2022-08-08T05:30:07.922Z,2.08
2022-08-08T05:31:19.335Z,2.13
2022-08-08T05:32:08.096Z,2.17
2022-08-08T05:33:07.944Z,3.83
2022-08-08T05:34:07.932Z,2.3
2022-08-08T05:35:09.642Z,2.18
2022-08-08T05:36:07.913Z,2.2
2022-08-08T05:37:17.327Z,2.24
2022-08-08T05:38:30.137Z,2.32
2022-08-08T05:39:09.574Z,2.35
2022-08-08T05:40:09.378Z,2.35
2022-08-08T05:41:07.915Z,2.43
2022-08-08T05:42:07.911Z,2.51
2022-08-08T05:43:38.432Z,2.49
2022-08-08T05:44:07.912Z,2.48
2022-08-08T05:45:24.596Z,2.55
2022-08-08T05:46:08.435Z,2.58
2022-08-08T05:47:07.920Z,2.65
2022-08-08T05:48:08.975Z,2.65
2022-08-08T05:49:11.006Z,2.66
2022-08-08T05:50:07.937Z,2.51
2022-08-08T05:51:14.708Z,2.56
2022-08-08T05:52:09.589Z,2.67
2022-08-08T05:53:53.584Z,2.74
2022-08-08T05:54:27.566Z,2.8
2022-08-08T05:55:09.911Z,2.84
2022-08-08T05:56:14.447Z,2.82
2022-08-08T05:57:07.929Z,2.89
2022-08-08T05:58:17.994Z,2.81
2022-08-08T05:59:12.706Z,2.86
2022-08-08T06:00:22.606Z,2.91
2022-08-08T06:01:07.959Z,2.93
2022-08-08T06:02:07.930Z,3.06
2022-08-08T06:03:07.981Z,3.1
2022-08-08T06:04:08.340Z,3.07
2022-08-08T06:05:35.642Z,3.11
2022-08-08T06:06:07.918Z,3.15
2022-08-08T06:07:07.911Z,3.15
2022-08-08T06:08:09.058Z,2.94
2022-08-08T06:09:41.897Z,2.96
2022-08-08T06:10:07.928Z,2.96
2022-08-08T06:11:08.228Z,2.92
2022-08-08T06:12:07.933Z,3
2022-08-08T06:13:07.943Z,3.04
2022-08-08T06:14:07.934Z,3.11
2022-08-08T06:15:07.920Z,3.05
2022-08-08T06:16:07.930Z,3.05
2022-08-08T06:17:07.928Z,2.55
2022-08-08T06:18:20.119Z,2.38
2022-08-08T06:19:07.924Z,2.15
2022-08-08T06:20:07.928Z,2.24
2022-08-08T06:21:11.706Z,2.33
2022-08-08T06:22:32.601Z,2.26
2022-08-08T06:23:07.941Z,2.31
2022-08-08T06:24:13.781Z,2.03
2022-08-08T06:25:07.930Z,2.53
2022-08-08T06:26:38.604Z,2.49
2022-08-08T06:27:09.298Z,2.44
2022-08-08T06:28:07.943Z,2.51
2022-08-08T06:29:26.916Z,2.52
2022-08-08T06:30:19.716Z,2.54
2022-08-08T06:31:09.418Z,2.71
2022-08-08T06:32:10.806Z,2.77
2022-08-08T06:33:09.319Z,2.87
2022-08-08T06:34:25.014Z,2.81
2022-08-08T06:35:12.430Z,2.72
2022-08-08T06:36:09.988Z,2.78
2022-08-08T06:37:24.377Z,2.87
2022-08-08T06:38:14.044Z,2.89
2022-08-08T06:39:07.974Z,2.86
2022-08-08T06:40:10.456Z,2.73
2022-08-08T06:41:07.926Z,2.6
2022-08-08T06:42:07.924Z,2.7
2022-08-08T06:43:09.499Z,2.74
2022-08-08T06:44:07.915Z,2.74
2022-08-08T06:45:07.938Z,2.63
2022-08-08T06:46:09.249Z,2.63
2022-08-08T06:47:07.930Z,2.65
2022-08-08T06:48:08.556Z,2.63
2022-08-08T06:49:11.053Z,2.73
2022-08-08T06:50:07.917Z,2.72
2022-08-08T06:51:08.592Z,2.78
2022-08-08T06:52:07.918Z,2.82
2022-08-08T06:53:10.170Z,2.89
2022-08-08T06:54:07.917Z,3.06
2022-08-08T06:55:07.916Z,3
2022-08-08T06:56:07.917Z,2.89
2022-08-08T06:57:08.716Z,2.93
2022-08-08T06:58:07.948Z,3.96
2022-08-08T06:59:12.168Z,2.94
2022-08-08T07:00:11.352Z,2.97
2022-08-08T07:01:52.222Z,3.08
2022-08-08T07:02:27.440Z,3.02
2022-08-08T07:03:08.008Z,3.04
2022-08-08T07:04:37.286Z,3.1
2022-08-08T07:05:12.081Z,3.05
2022-08-08T07:06:07.916Z,2.93
2022-08-08T07:07:10.524Z,3.08
2022-08-08T07:08:08.883Z,3.18
2022-08-08T07:13:07.946Z,3.34
2022-08-08T07:14:07.926Z,3.41
2022-08-08T07:15:11.469Z,3.43
2022-08-08T07:16:11.999Z,3.37
2022-08-08T07:17:09.078Z,3.34
2022-08-08T07:18:36.877Z,3.28
2022-08-08T07:19:07.924Z,3.4
2022-08-08T07:20:07.916Z,3.37
2022-08-08T07:21:18.675Z,3.43
2022-08-08T07:22:12.069Z,3.51
2022-08-08T07:23:07.938Z,3.44
2022-08-08T07:24:09.314Z,3.41
2022-08-08T07:25:07.923Z,3.27
2022-08-08T07:26:07.931Z,3.54
2022-08-08T07:27:09.323Z,3.62
2022-08-08T07:28:08.379Z,3.59
2022-08-08T07:29:11.691Z,3.52
2022-08-08T07:30:13.742Z,3.38
2022-08-08T07:31:07.926Z,3.55
2022-08-08T07:32:07.925Z,3.37
2022-08-08T07:33:07.934Z,3.22
2022-08-08T07:34:09.149Z,3.2
2022-08-08T07:35:08.582Z,3.81
2022-08-08T07:36:08.167Z,3.09
2022-08-08T07:37:12.062Z,3.09
2022-08-08T07:38:10.159Z,2.9
2022-08-08T07:39:07.994Z,3.12
2022-08-08T07:40:08.020Z,2.96
2022-08-08T07:41:08.907Z,2.94
2022-08-08T07:42:07.914Z,2.92
2022-08-08T07:43:09.301Z,2.97
2022-08-08T07:44:37.649Z,2.99
2022-08-08T07:45:07.913Z,3.06
2022-08-08T07:46:24.163Z,3.13
2022-08-08T07:47:07.928Z,3.17
2022-08-08T07:48:07.933Z,2.97
2022-08-08T07:49:07.921Z,2.67
2022-08-08T07:50:08.436Z,2.9
2022-08-08T07:51:10.918Z,3.19
2022-08-08T07:52:07.922Z,3.11
2022-08-08T07:53:07.935Z,3.16
2022-08-08T07:54:07.930Z,3.35
2022-08-08T07:55:07.915Z,3.01
2022-08-08T07:56:07.921Z,3.74
2022-08-08T07:57:08.939Z,3.03
2022-08-08T07:58:07.931Z,2.77
2022-08-08T07:59:07.925Z,3.13
2022-08-08T08:00:15.973Z,3.25
2022-08-08T08:01:08.276Z,3.34
2022-08-08T08:02:34.818Z,3.37
2022-08-08T08:03:12.482Z,3.23
2022-08-08T08:04:07.926Z,3
2022-08-08T08:05:14.402Z,3.07
2022-08-08T08:06:07.912Z,2.99
2022-08-08T08:07:07.925Z,3.21
2022-08-08T08:08:07.943Z,3.14
2022-08-08T08:09:07.934Z,2.66
2022-08-08T08:10:07.924Z,2.62
2022-08-08T08:11:07.929Z,2.64
2022-08-08T08:12:07.935Z,2.81
2022-08-08T08:13:07.925Z,2.87
2022-08-08T08:14:10.681Z,2.57
2022-08-08T08:15:07.915Z,2.75
2022-08-08T08:16:07.920Z,2.63
2022-08-08T08:17:08.633Z,2.91
2022-08-08T08:18:14.261Z,2.84
2022-08-08T08:19:07.963Z,2.84
2022-08-08T08:20:07.911Z,3.34
2022-08-08T08:21:14.616Z,3.12
2022-08-08T08:22:08.030Z,2.82
2022-08-08T08:23:07.960Z,2.81
2022-08-08T08:24:07.930Z,2.74
2022-08-08T08:25:08.594Z,2.7
2022-08-08T08:26:07.929Z,2.76
2022-08-08T08:27:08.370Z,2.78
2022-08-08T08:28:09.277Z,2.62
2022-08-08T08:29:07.934Z,2.62
2022-08-08T08:30:07.923Z,2.09
2022-08-08T08:31:08.942Z,2.24
2022-08-08T08:32:08.876Z,2.1
2022-08-08T08:33:11.040Z,2.4
2022-08-08T08:34:07.919Z,2.2
2022-08-08T08:35:07.916Z,2.19
2022-08-08T08:36:20.110Z,2.6
2022-08-08T08:37:08.776Z,2.19
2022-08-08T08:38:16.023Z,2.15
2022-08-08T08:39:17.343Z,2.15
2022-08-08T08:40:07.968Z,2.09
2022-08-08T08:41:16.837Z,2.38
2022-08-08T08:42:07.927Z,2.43
2022-08-08T08:43:11.776Z,2.82
2022-08-08T08:44:14.098Z,2.77
2022-08-08T08:45:21.737Z,2.47
2022-08-08T08:46:07.917Z,2.5
2022-08-08T08:47:08.246Z,2.52
2022-08-08T08:48:07.928Z,2.27
2022-08-08T08:49:07.927Z,2.22
2022-08-08T08:50:07.925Z,2.43
2022-08-08T08:51:07.920Z,2.52
2022-08-08T08:52:07.923Z,2.6
2022-08-08T08:53:27.712Z,2.65
2022-08-08T08:54:07.926Z,2.37
2022-08-08T08:55:07.914Z,2.36
2022-08-08T08:56:07.940Z,2.23
2022-08-08T08:57:17.125Z,2.32
2022-08-08T08:58:07.929Z,2.54
2022-08-08T08:59:08.974Z,2.55
2022-08-08T09:00:15.540Z,2.55
2022-08-08T09:01:09.806Z,2.46
2022-08-08T09:02:07.963Z,2.43
2022-08-08T09:03:07.938Z,2.63
2022-08-08T09:04:09.980Z,2.63
2022-08-08T09:05:07.917Z,2.65
2022-08-08T09:06:26.397Z,2.79
2022-08-08T09:07:12.778Z,2.64
2022-08-08T09:08:12.669Z,2.82
2022-08-08T09:09:26.149Z,2.83
2022-08-08T09:10:12.273Z,2.64
2022-08-08T09:11:07.922Z,2.7
2022-08-08T09:12:08.513Z,2.83
2022-08-08T09:13:07.936Z,2.78
2022-08-08T09:14:07.934Z,2.9
2022-08-08T09:15:07.916Z,2.87
2022-08-08T09:16:07.930Z,2.96
2022-08-08T09:17:12.881Z,3.09
2022-08-08T09:18:07.942Z,2.99
2022-08-08T09:19:07.929Z,2.93
2022-08-08T09:21:57.057Z,3
2022-08-08T09:22:01.477Z,2.89
2022-08-08T09:22:07.977Z,3.28
2022-08-08T09:23:10.477Z,3.09
2022-08-08T09:24:07.932Z,3.09
2022-08-08T09:25:07.916Z,2.92
2022-08-08T09:26:07.925Z,2.96
2022-08-08T09:27:07.929Z,3.01
2022-08-08T09:28:07.937Z,3.07
2022-08-08T09:29:08.399Z,3.07
2022-08-08T09:30:07.915Z,3.24
2022-08-08T09:31:12.751Z,3.36
2022-08-08T09:32:14.275Z,3.34
2022-08-08T09:33:54.181Z,3.29
2022-08-08T09:34:30.616Z,3.34
2022-08-08T09:35:08.588Z,3.24
2022-08-08T09:36:07.931Z,3.03
2022-08-08T09:37:39.560Z,3.19
2022-08-08T09:38:17.879Z,3.33
2022-08-08T09:39:10.117Z,3.3
2022-08-08T09:40:10.574Z,3.36
2022-08-08T09:41:07.911Z,3.27
2022-08-08T09:42:20.267Z,3.59
2022-08-08T09:43:16.815Z,3.29
2022-08-08T09:44:15.432Z,3.07
2022-08-08T09:45:08.100Z,3.28
2022-08-08T09:46:07.977Z,3.18
2022-08-08T09:47:26.671Z,3.16
2022-08-08T09:48:16.247Z,3.14
2022-08-08T09:49:41.533Z,3.24
2022-08-08T09:50:13.600Z,3.34
2022-08-08T09:51:07.939Z,3.54
2022-08-08T09:52:08.669Z,3.34
2022-08-08T09:53:14.444Z,3.18
2022-08-08T09:54:11.910Z,2.96
2022-08-08T09:55:07.927Z,2.88
2022-08-08T09:56:12.357Z,2.92
2022-08-08T09:57:16.266Z,3.38
2022-08-08T09:58:07.941Z,2.85
2022-08-08T09:59:32.038Z,3
2022-08-08T10:00:34.192Z,3.07
2022-08-08T10:01:15.340Z,2.8
2022-08-08T10:02:12.907Z,3.11
2022-08-08T10:03:07.950Z,3.09
2022-08-08T10:04:07.965Z,3.09
2022-08-08T10:05:14.462Z,3.17
2022-08-08T10:06:07.928Z,3.23
2022-08-08T10:07:07.936Z,3.2
2022-08-08T10:08:09.978Z,3.15
2022-08-08T10:09:08.364Z,3.17
2022-08-08T10:10:07.919Z,3.18
2022-08-08T10:12:22.490Z,3.18
2022-08-08T10:12:27.158Z,3.2
2022-08-08T10:13:14.853Z,3.29
2022-08-08T10:14:10.839Z,3.3
2022-08-08T10:15:18.732Z,3.3
2022-08-08T10:16:09.139Z,3.39
2022-08-08T10:17:56.172Z,3.42
2022-08-08T10:18:11.961Z,3.42
2022-08-08T10:19:07.914Z,3.53
2022-08-08T10:20:07.925Z,3.56
2022-08-08T10:21:22.503Z,3.59
2022-08-08T10:22:07.930Z,3.59
2022-08-08T10:26:29.993Z,3.51
2022-08-08T10:27:13.754Z,3.44
2022-08-08T10:28:07.920Z,3.51
2022-08-08T10:29:07.926Z,3.73
2022-08-08T10:30:07.930Z,3.7
2022-08-08T10:31:07.919Z,3.51
2022-08-08T10:32:07.912Z,3.48
2022-08-08T10:33:07.931Z,3.45
2022-08-08T10:34:19.025Z,3.46
2022-08-08T10:35:11.624Z,3.52
2022-08-08T10:36:20.962Z,3.61
2022-08-08T10:37:07.920Z,3.64
2022-08-08T10:38:08.516Z,3.75
2022-08-08T10:39:08.019Z,3.75
2022-08-08T10:40:08.027Z,3.63
2022-08-08T10:41:07.933Z,3.69
2022-08-08T10:42:16.661Z,3.73
2022-08-08T10:43:09.892Z,3.84
2022-08-08T10:44:07.940Z,3.83
2022-08-08T10:45:09.202Z,3.82
2022-08-08T10:46:07.916Z,3.86
2022-08-08T10:47:07.926Z,3.86
2022-08-08T10:48:07.933Z,3.79
2022-08-08T10:49:07.933Z,3.79
2022-08-08T10:50:07.914Z,3.72
2022-08-08T10:51:07.924Z,3.75
2022-08-08T10:52:07.918Z,3.84
2022-08-08T10:53:11.566Z,3.82
2022-08-08T10:54:07.941Z,3.75
2022-08-08T10:55:07.916Z,3.71
2022-08-08T10:56:07.937Z,3.72
2022-08-08T10:57:08.962Z,3.79
2022-08-08T10:58:07.930Z,3.79
2022-08-08T10:59:08.324Z,3.84
2022-08-08T11:00:07.950Z,3.84
2022-08-08T11:01:10.734Z,3.83
2022-08-08T11:02:08.001Z,3.75
2022-08-08T11:03:07.921Z,3.74
2022-08-08T11:04:07.928Z,3.77
2022-08-08T11:05:14.961Z,3.81
2022-08-08T11:06:12.633Z,3.87
2022-08-08T11:07:15.077Z,3.96
2022-08-08T11:08:36.927Z,3.85
2022-08-08T11:09:15.050Z,3.89
2022-08-08T11:10:08.014Z,3.84
2022-08-08T11:11:32.722Z,4.04
2022-08-08T11:12:13.053Z,4.04
2022-08-08T11:13:27.997Z,3.95
2022-08-08T11:14:07.929Z,4.03
2022-08-08T11:15:07.911Z,4.08
2022-08-08T11:16:11.571Z,4.16
2022-08-08T11:17:08.713Z,4.16
2022-08-08T11:18:07.918Z,4.1
2022-08-08T11:19:10.747Z,4.22
2022-08-08T11:20:12.303Z,4.21
2022-08-08T11:21:08.977Z,4.22
2022-08-08T11:22:07.917Z,4.21
2022-08-08T11:23:07.919Z,4.23
2022-08-08T11:24:07.943Z,4.22
2022-08-08T11:25:14.195Z,4.25
2022-08-08T11:26:07.934Z,4.13
2022-08-08T11:27:19.257Z,4.13
2022-08-08T11:28:07.927Z,4.23
2022-08-08T11:29:07.941Z,4.3
2022-08-08T11:30:24.468Z,4.23
2022-08-08T11:31:09.583Z,4.31
2022-08-08T11:32:07.917Z,4.29
2022-08-08T11:33:12.217Z,4.27
2022-08-08T11:34:25.710Z,4.28
2022-08-08T11:35:27.868Z,4.32
2022-08-08T11:36:07.929Z,4.39
2022-08-08T11:37:15.221Z,4.47
2022-08-08T11:38:35.566Z,4.4
2022-08-08T11:39:10.809Z,4.3
2022-08-08T11:40:07.998Z,4.37
2022-08-08T11:41:07.999Z,4.44
2022-08-08T11:42:09.143Z,4.5
2022-08-08T11:43:07.916Z,4.48
2022-08-08T11:44:07.941Z,4.48
2022-08-08T11:45:07.912Z,4.64
2022-08-08T11:46:13.514Z,4.64
2022-08-08T11:47:12.822Z,4.62
2022-08-08T11:48:09.850Z,4.6
2022-08-08T11:49:08.693Z,4.61
2022-08-08T11:50:10.040Z,4.68
2022-08-08T11:51:30.162Z,4.82
2022-08-08T11:52:07.920Z,4.74
2022-08-08T11:53:07.913Z,4.47
2022-08-08T11:54:27.308Z,4.7
2022-08-08T11:55:07.915Z,4.57
2022-08-08T11:56:07.938Z,4.78
2022-08-08T11:57:14.073Z,4.78
2022-08-08T11:58:14.449Z,4.82
2022-08-08T11:59:07.930Z,4.53
2022-08-08T12:00:09.775Z,4.53
2022-08-08T12:01:12.254Z,4.97
2022-08-08T12:02:31.188Z,4.92
2022-08-08T12:03:07.977Z,4.92
2022-08-08T12:04:07.941Z,4.82
2022-08-08T12:05:07.909Z,4.91
2022-08-08T12:06:07.920Z,4.9
2022-08-08T12:07:08.129Z,4.83
2022-08-08T12:08:07.929Z,4.82
2022-08-08T12:09:07.943Z,4.87
2022-08-08T12:10:08.016Z,4.74
2022-08-08T12:11:07.924Z,4.74
2022-08-08T12:12:07.910Z,4.84
2022-08-08T12:13:09.677Z,4.81
2022-08-08T12:14:11.048Z,4.43
2022-08-08T12:15:09.592Z,4.62
2022-08-08T12:16:07.915Z,4.62
2022-08-08T12:17:07.919Z,4.69
2022-08-08T12:18:07.922Z,4.64
2022-08-08T12:19:07.930Z,4.56
2022-08-08T12:20:07.929Z,4.61
2022-08-08T12:21:07.924Z,4.6
2022-08-08T12:22:08.909Z,4.53
2022-08-08T12:23:25.078Z,4.53
2022-08-08T12:24:07.933Z,4.53
2022-08-08T12:25:07.920Z,4.43
2022-08-08T12:26:07.954Z,4.69
2022-08-08T12:27:07.918Z,4.75
2022-08-08T12:28:11.708Z,4.83
2022-08-08T12:29:07.936Z,4.82
2022-08-08T12:30:18.580Z,4.83
2022-08-08T12:31:08.704Z,4.83
2022-08-08T12:32:09.461Z,4.82
2022-08-08T12:33:08.794Z,4.82
2022-08-08T12:34:07.930Z,4.83
2022-08-08T12:35:17.421Z,4.69
2022-08-08T12:36:07.943Z,4.74
2022-08-08T12:37:08.160Z,4.74
2022-08-08T12:38:07.956Z,4.82
2022-08-08T12:39:08.015Z,4.87
2022-08-08T12:40:07.958Z,4.9
2022-08-08T12:41:18.121Z,5.05
2022-08-08T12:42:07.911Z,4.93
2022-08-08T12:43:07.917Z,4.97
2022-08-08T12:44:07.930Z,4.97
2022-08-08T12:45:14.449Z,4.87
2022-08-08T12:46:07.912Z,4.94
2022-08-08T12:47:09.024Z,4.83
2022-08-08T12:48:18.296Z,4.86
2022-08-08T12:49:40.187Z,4.86
2022-08-08T12:50:07.918Z,4.76
2022-08-08T12:51:11.352Z,4.55
2022-08-08T12:52:28.030Z,4.93
2022-08-08T12:53:07.928Z,4.93
2022-08-08T12:54:24.522Z,4.99
2022-08-08T12:55:09.416Z,4.99
2022-08-08T12:56:18.191Z,4.9
2022-08-08T12:57:07.929Z,4.84
2022-08-08T12:58:07.919Z,4.8
2022-08-08T12:59:07.929Z,4.82
2022-08-08T13:00:13.649Z,4.82
2022-08-08T13:01:07.948Z,4.67
2022-08-08T13:02:08.104Z,4.69
2022-08-08T13:03:07.917Z,4.79
2022-08-08T13:04:07.940Z,4.82
2022-08-08T13:05:25.685Z,4.82
2022-08-08T13:06:13.709Z,4.92
2022-08-08T13:07:07.918Z,4.96
2022-08-08T13:08:07.927Z,4.89
2022-08-08T13:09:07.931Z,4.89
2022-08-08T13:10:10.647Z,4.89
2022-08-08T13:11:07.936Z,4.9
2022-08-08T13:12:27.112Z,4.85
2022-08-08T13:13:08.273Z,4.9
2022-08-08T13:14:09.958Z,4.9
2022-08-08T13:15:07.909Z,4.96
2022-08-08T13:16:07.912Z,5.12
2022-08-08T13:17:07.924Z,5.05
2022-08-08T13:18:13.585Z,4.97
2022-08-08T13:19:14.179Z,5.04
2022-08-08T13:20:08.666Z,5.04
2022-08-08T13:21:07.921Z,5.04
2022-08-08T13:22:07.925Z,5.01
2022-08-08T13:23:31.016Z,5.01
2022-08-08T13:24:07.939Z,5.04
2022-08-08T13:25:07.916Z,5.04
2022-08-08T13:26:14.296Z,5.08
2022-08-08T13:27:10.794Z,5.08
2022-08-08T13:28:07.908Z,5.08
2022-08-08T13:29:07.928Z,4.98
2022-08-08T13:30:07.928Z,4.99
2022-08-08T13:31:07.924Z,5.1
2022-08-08T13:32:07.939Z,5.1
2022-08-08T13:33:07.924Z,4.97
2022-08-08T13:34:11.915Z,5.04
2022-08-08T13:35:24.260Z,5.04
2022-08-08T13:36:07.920Z,5.06